sensor_id;sensor_type;location;lat;lon;timestamp;temperature;humidity
68865;DHT22;55898;52.196;4.420;2022-10-01T00:01:11;12.58;90.72
68865;DHT22;55898;52.196;4.420;2022-10-01T00:03:36;12.58;90.71
68865;DHT22;55898;52.196;4.420;2022-10-01T00:06:14;12.58;90.72
68865;DHT22;55898;52.196;4.420;2022-10-01T00:08:43;12.52;90.64
68865;DHT22;55898;52.196;4.420;2022-10-01T00:11:21;12.61;90.66
68865;DHT22;55898;52.196;4.420;2022-10-01T00:13:48;12.69;90.64
68865;DHT22;55898;52.196;4.420;2022-10-01T00:16:16;12.75;90.53
68865;DHT22;55898;52.196;4.420;2022-10-01T00:18:43;12.66;90.23
68865;DHT22;55898;52.196;4.420;2022-10-01T00:21:13;12.69;90.32
68865;DHT22;55898;52.196;4.420;2022-10-01T00:23:39;12.69;90.44
68865;DHT22;55898;52.196;4.420;2022-10-01T00:26:14;12.69;90.61
68865;DHT22;55898;52.196;4.420;2022-10-01T00:28:43;12.65;90.55
68865;DHT22;55898;52.196;4.420;2022-10-01T00:31:10;12.61;90.93
68865;DHT22;55898;52.196;4.420;2022-10-01T00:33:36;12.58;90.88
68865;DHT22;55898;52.196;4.420;2022-10-01T00:36:07;12.62;90.87
68865;DHT22;55898;52.196;4.420;2022-10-01T00:38:33;12.61;90.85
68865;DHT22;55898;52.196;4.420;2022-10-01T00:40:59;12.63;90.69
68865;DHT22;55898;52.196;4.420;2022-10-01T00:43:31;12.62;90.85
68865;DHT22;55898;52.196;4.420;2022-10-01T00:46:02;12.65;90.83
68865;DHT22;55898;52.196;4.420;2022-10-01T00:48:34;12.65;90.80
68865;DHT22;55898;52.196;4.420;2022-10-01T00:51:04;12.71;90.74
68865;DHT22;55898;52.196;4.420;2022-10-01T00:53:31;12.78;90.70
68865;DHT22;55898;52.196;4.420;2022-10-01T00:58:25;12.82;90.59
68865;DHT22;55898;52.196;4.420;2022-10-01T01:00:55;12.81;90.47
68865;DHT22;55898;52.196;4.420;2022-10-01T01:03:21;12.79;90.44
68865;DHT22;55898;52.196;4.420;2022-10-01T01:05:46;12.75;90.55
68865;DHT22;55898;52.196;4.420;2022-10-01T01:08:16;12.78;90.65
68865;DHT22;55898;52.196;4.420;2022-10-01T01:13:49;12.82;90.65
68865;DHT22;55898;52.196;4.420;2022-10-01T01:16:27;12.83;90.54
68865;DHT22;55898;52.196;4.420;2022-10-01T01:21:52;12.83;90.60
68865;DHT22;55898;52.196;4.420;2022-10-01T01:30:07;12.93;90.44
68865;DHT22;55898;52.196;4.420;2022-10-01T01:35:42;12.93;90.41
68865;DHT22;55898;52.196;4.420;2022-10-01T01:38:17;13.02;90.52
68865;DHT22;55898;52.196;4.420;2022-10-01T01:40:46;13.02;90.29
68865;DHT22;55898;52.196;4.420;2022-10-01T01:43:22;12.97;90.45
68865;DHT22;55898;52.196;4.420;2022-10-01T01:45:51;13.04;90.48
68865;DHT22;55898;52.196;4.420;2022-10-01T01:48:25;13.06;90.48
68865;DHT22;55898;52.196;4.420;2022-10-01T01:53:38;13.12;90.31
68865;DHT22;55898;52.196;4.420;2022-10-01T01:56:05;13.12;90.31
68865;DHT22;55898;52.196;4.420;2022-10-01T01:58:33;13.17;90.27
68865;DHT22;55898;52.196;4.420;2022-10-01T02:00:59;13.19;90.17
68865;DHT22;55898;52.196;4.420;2022-10-01T02:03:27;13.24;90.22
68865;DHT22;55898;52.196;4.420;2022-10-01T02:06:18;13.24;90.15
68865;DHT22;55898;52.196;4.420;2022-10-01T02:08:57;13.26;90.19
68865;DHT22;55898;52.196;4.420;2022-10-01T02:11:35;13.20;90.06
68865;DHT22;55898;52.196;4.420;2022-10-01T02:14:20;13.28;90.21
68865;DHT22;55898;52.196;4.420;2022-10-01T02:19:56;13.23;90.24
68865;DHT22;55898;52.196;4.420;2022-10-01T02:25:12;13.33;90.31
68865;DHT22;55898;52.196;4.420;2022-10-01T02:27:51;13.36;90.15
68865;DHT22;55898;52.196;4.420;2022-10-01T02:30:20;13.36;90.11
68865;DHT22;55898;52.196;4.420;2022-10-01T02:32:49;13.39;90.10
68865;DHT22;55898;52.196;4.420;2022-10-01T02:35:19;13.37;90.14
68865;DHT22;55898;52.196;4.420;2022-10-01T02:37:49;13.41;90.12
68865;DHT22;55898;52.196;4.420;2022-10-01T02:40:20;13.46;90.05
68865;DHT22;55898;52.196;4.420;2022-10-01T02:42:52;13.50;90.03
68865;DHT22;55898;52.196;4.420;2022-10-01T02:45:21;13.53;90.00
68865;DHT22;55898;52.196;4.420;2022-10-01T02:48:03;13.48;90.02
68865;DHT22;55898;52.196;4.420;2022-10-01T02:55:52;13.61;89.87
68865;DHT22;55898;52.196;4.420;2022-10-01T02:58:21;13.62;89.79
68865;DHT22;55898;52.196;4.420;2022-10-01T03:00:46;13.67;89.87
68865;DHT22;55898;52.196;4.420;2022-10-01T03:03:12;13.70;89.92
68865;DHT22;55898;52.196;4.420;2022-10-01T03:05:37;13.70;89.88
68865;DHT22;55898;52.196;4.420;2022-10-01T03:08:02;13.70;89.93
68865;DHT22;55898;52.196;4.420;2022-10-01T03:10:28;13.71;89.91
68865;DHT22;55898;52.196;4.420;2022-10-01T03:12:53;13.74;89.88
68865;DHT22;55898;52.196;4.420;2022-10-01T03:15:19;13.78;89.82
68865;DHT22;55898;52.196;4.420;2022-10-01T03:17:49;13.85;89.80
68865;DHT22;55898;52.196;4.420;2022-10-01T03:20:15;13.85;89.66
68865;DHT22;55898;52.196;4.420;2022-10-01T03:22:44;13.92;89.68
68865;DHT22;55898;52.196;4.420;2022-10-01T03:25:10;13.89;89.80
68865;DHT22;55898;52.196;4.420;2022-10-01T03:27:35;13.94;90.06
68865;DHT22;55898;52.196;4.420;2022-10-01T03:30:01;13.98;89.75
68865;DHT22;55898;52.196;4.420;2022-10-01T03:32:26;14.02;89.86
68865;DHT22;55898;52.196;4.420;2022-10-01T03:34:52;14.05;89.76
68865;DHT22;55898;52.196;4.420;2022-10-01T03:37:17;14.09;89.79
68865;DHT22;55898;52.196;4.420;2022-10-01T03:39:43;14.12;90.15
68865;DHT22;55898;52.196;4.420;2022-10-01T03:42:09;14.19;90.23
68865;DHT22;55898;52.196;4.420;2022-10-01T03:44:34;14.23;90.48
68865;DHT22;55898;52.196;4.420;2022-10-01T03:47:00;14.29;90.53
68865;DHT22;55898;52.196;4.420;2022-10-01T03:49:25;14.33;90.36
68865;DHT22;55898;52.196;4.420;2022-10-01T03:51:52;14.33;90.37
68865;DHT22;55898;52.196;4.420;2022-10-01T03:54:18;14.39;90.31
68865;DHT22;55898;52.196;4.420;2022-10-01T03:56:44;14.49;90.11
68865;DHT22;55898;52.196;4.420;2022-10-01T03:59:10;14.55;89.91
68865;DHT22;55898;52.196;4.420;2022-10-01T04:01:37;14.56;90.14
68865;DHT22;55898;52.196;4.420;2022-10-01T04:04:03;14.61;89.97
68865;DHT22;55898;52.196;4.420;2022-10-01T04:06:29;14.63;89.69
68865;DHT22;55898;52.196;4.420;2022-10-01T04:08:55;14.64;89.58
68865;DHT22;55898;52.196;4.420;2022-10-01T04:11:21;14.66;89.40
68865;DHT22;55898;52.196;4.420;2022-10-01T04:13:46;14.63;89.44
68865;DHT22;55898;52.196;4.420;2022-10-01T04:16:12;14.63;89.28
68865;DHT22;55898;52.196;4.420;2022-10-01T04:18:38;14.63;89.33
68865;DHT22;55898;52.196;4.420;2022-10-01T04:21:03;14.64;89.14
68865;DHT22;55898;52.196;4.420;2022-10-01T04:23:29;14.63;88.90
68865;DHT22;55898;52.196;4.420;2022-10-01T04:25:58;14.61;89.13
68865;DHT22;55898;52.196;4.420;2022-10-01T04:28:24;14.56;88.99
68865;DHT22;55898;52.196;4.420;2022-10-01T04:30:49;14.57;89.11
68865;DHT22;55898;52.196;4.420;2022-10-01T04:33:34;14.53;88.93
68865;DHT22;55898;52.196;4.420;2022-10-01T04:36:00;14.55;88.75
68865;DHT22;55898;52.196;4.420;2022-10-01T04:38:26;14.50;88.85
68865;DHT22;55898;52.196;4.420;2022-10-01T04:40:51;14.50;88.79
68865;DHT22;55898;52.196;4.420;2022-10-01T04:43:16;14.46;88.96
68865;DHT22;55898;52.196;4.420;2022-10-01T04:45:42;14.46;89.03
68865;DHT22;55898;52.196;4.420;2022-10-01T04:48:07;14.47;89.08
68865;DHT22;55898;52.196;4.420;2022-10-01T04:50:33;14.47;88.91
68865;DHT22;55898;52.196;4.420;2022-10-01T04:52:59;14.46;88.90
68865;DHT22;55898;52.196;4.420;2022-10-01T04:55:25;14.47;89.00
68865;DHT22;55898;52.196;4.420;2022-10-01T04:57:50;14.46;88.92
68865;DHT22;55898;52.196;4.420;2022-10-01T05:00:19;14.44;88.98
68865;DHT22;55898;52.196;4.420;2022-10-01T05:02:46;14.46;88.96
68865;DHT22;55898;52.196;4.420;2022-10-01T05:05:14;14.44;88.95
68865;DHT22;55898;52.196;4.420;2022-10-01T05:07:40;14.44;88.84
68865;DHT22;55898;52.196;4.420;2022-10-01T05:10:09;14.47;88.87
68865;DHT22;55898;52.196;4.420;2022-10-01T05:12:35;14.43;88.81
68865;DHT22;55898;52.196;4.420;2022-10-01T05:15:01;14.47;88.60
68865;DHT22;55898;52.196;4.420;2022-10-01T05:17:27;14.49;88.33
68865;DHT22;55898;52.196;4.420;2022-10-01T05:19:53;14.47;88.27
68865;DHT22;55898;52.196;4.420;2022-10-01T05:22:18;14.44;88.16
68865;DHT22;55898;52.196;4.420;2022-10-01T05:24:44;14.47;88.36
68865;DHT22;55898;52.196;4.420;2022-10-01T05:27:10;14.49;88.30
68865;DHT22;55898;52.196;4.420;2022-10-01T05:29:41;14.44;88.43
68865;DHT22;55898;52.196;4.420;2022-10-01T05:32:08;14.47;88.38
68865;DHT22;55898;52.196;4.420;2022-10-01T05:34:35;14.47;88.35
68865;DHT22;55898;52.196;4.420;2022-10-01T05:37:01;14.43;87.83
68865;DHT22;55898;52.196;4.420;2022-10-01T05:39:28;14.51;88.02
68865;DHT22;55898;52.196;4.420;2022-10-01T05:41:53;14.50;87.94
68865;DHT22;55898;52.196;4.420;2022-10-01T05:44:21;14.57;88.09
68865;DHT22;55898;52.196;4.420;2022-10-01T05:46:46;14.60;87.98
68865;DHT22;55898;52.196;4.420;2022-10-01T05:49:12;14.60;87.97
68865;DHT22;55898;52.196;4.420;2022-10-01T05:51:37;14.57;87.86
68865;DHT22;55898;52.196;4.420;2022-10-01T05:54:03;14.60;88.04
68865;DHT22;55898;52.196;4.420;2022-10-01T05:56:29;14.64;88.15
68865;DHT22;55898;52.196;4.420;2022-10-01T05:58:55;14.71;88.21
68865;DHT22;55898;52.196;4.420;2022-10-01T06:01:20;14.80;88.20
68865;DHT22;55898;52.196;4.420;2022-10-01T06:03:50;14.81;88.20
68865;DHT22;55898;52.196;4.420;2022-10-01T06:06:21;14.91;87.91
68865;DHT22;55898;52.196;4.420;2022-10-01T06:08:46;14.94;88.02
68865;DHT22;55898;52.196;4.420;2022-10-01T06:11:12;14.95;88.24
68865;DHT22;55898;52.196;4.420;2022-10-01T06:13:37;14.98;88.32
68865;DHT22;55898;52.196;4.420;2022-10-01T06:16:04;14.99;88.78
68865;DHT22;55898;52.196;4.420;2022-10-01T06:18:29;14.98;88.98
68865;DHT22;55898;52.196;4.420;2022-10-01T06:20:57;15.01;88.75
68865;DHT22;55898;52.196;4.420;2022-10-01T06:23:22;15.02;89.12
68865;DHT22;55898;52.196;4.420;2022-10-01T06:25:48;15.01;88.67
68865;DHT22;55898;52.196;4.420;2022-10-01T06:28:14;14.98;88.57
68865;DHT22;55898;52.196;4.420;2022-10-01T06:30:39;14.92;88.45
68865;DHT22;55898;52.196;4.420;2022-10-01T06:35:34;14.91;88.57
68865;DHT22;55898;52.196;4.420;2022-10-01T06:38:00;14.94;88.67
68865;DHT22;55898;52.196;4.420;2022-10-01T06:40:30;15.01;88.60
68865;DHT22;55898;52.196;4.420;2022-10-01T06:42:56;15.05;88.48
68865;DHT22;55898;52.196;4.420;2022-10-01T06:45:29;15.09;88.80
68865;DHT22;55898;52.196;4.420;2022-10-01T06:47:56;15.18;88.46
68865;DHT22;55898;52.196;4.420;2022-10-01T06:50:23;15.18;88.85
68865;DHT22;55898;52.196;4.420;2022-10-01T06:52:50;15.22;89.05
68865;DHT22;55898;52.196;4.420;2022-10-01T06:55:21;15.28;89.07
68865;DHT22;55898;52.196;4.420;2022-10-01T06:57:56;15.34;88.82
68865;DHT22;55898;52.196;4.420;2022-10-01T07:00:23;15.31;88.68
68865;DHT22;55898;52.196;4.420;2022-10-01T07:02:49;15.31;88.76
68865;DHT22;55898;52.196;4.420;2022-10-01T07:05:15;15.31;88.58
68865;DHT22;55898;52.196;4.420;2022-10-01T07:07:42;15.26;89.02
68865;DHT22;55898;52.196;4.420;2022-10-01T07:10:10;15.25;89.06
68865;DHT22;55898;52.196;4.420;2022-10-01T07:12:37;15.25;89.00
68865;DHT22;55898;52.196;4.420;2022-10-01T07:15:04;15.25;89.10
68865;DHT22;55898;52.196;4.420;2022-10-01T07:17:31;15.26;88.93
68865;DHT22;55898;52.196;4.420;2022-10-01T07:19:57;15.22;88.47
68865;DHT22;55898;52.196;4.420;2022-10-01T07:22:22;15.14;88.71
68865;DHT22;55898;52.196;4.420;2022-10-01T07:24:49;15.08;88.57
68865;DHT22;55898;52.196;4.420;2022-10-01T07:27:15;15.09;88.67
68865;DHT22;55898;52.196;4.420;2022-10-01T07:29:41;15.19;88.68
68865;DHT22;55898;52.196;4.420;2022-10-01T07:32:08;15.28;88.33
68865;DHT22;55898;52.196;4.420;2022-10-01T07:34:37;15.29;88.28
68865;DHT22;55898;52.196;4.420;2022-10-01T07:37:05;15.29;88.08
68865;DHT22;55898;52.196;4.420;2022-10-01T07:39:31;15.21;87.69
68865;DHT22;55898;52.196;4.420;2022-10-01T07:41:56;15.21;87.86
68865;DHT22;55898;52.196;4.420;2022-10-01T07:44:23;15.24;87.69
68865;DHT22;55898;52.196;4.420;2022-10-01T07:46:49;15.42;87.54
68865;DHT22;55898;52.196;4.420;2022-10-01T07:49:15;15.53;87.31
68865;DHT22;55898;52.196;4.420;2022-10-01T07:51:42;15.63;87.30
68865;DHT22;55898;52.196;4.420;2022-10-01T07:54:08;15.67;87.05
68865;DHT22;55898;52.196;4.420;2022-10-01T07:56:34;15.63;86.58
68865;DHT22;55898;52.196;4.420;2022-10-01T07:59:00;15.69;86.05
68865;DHT22;55898;52.196;4.420;2022-10-01T08:01:25;15.69;86.18
68865;DHT22;55898;52.196;4.420;2022-10-01T08:03:52;15.76;85.64
68865;DHT22;55898;52.196;4.420;2022-10-01T08:06:19;15.77;86.16
68865;DHT22;55898;52.196;4.420;2022-10-01T08:08:45;15.83;85.76
68865;DHT22;55898;52.196;4.420;2022-10-01T08:11:12;15.97;85.18
68865;DHT22;55898;52.196;4.420;2022-10-01T08:13:40;16.03;85.39
68865;DHT22;55898;52.196;4.420;2022-10-01T08:16:06;15.97;85.37
68865;DHT22;55898;52.196;4.420;2022-10-01T08:18:34;15.84;85.32
68865;DHT22;55898;52.196;4.420;2022-10-01T08:21:01;15.90;85.25
68865;DHT22;55898;52.196;4.420;2022-10-01T08:23:29;15.93;85.37
68865;DHT22;55898;52.196;4.420;2022-10-01T08:26:07;15.90;84.97
68865;DHT22;55898;52.196;4.420;2022-10-01T08:28:35;15.84;85.33
68865;DHT22;55898;52.196;4.420;2022-10-01T08:31:05;15.71;83.24
68865;DHT22;55898;52.196;4.420;2022-10-01T08:33:32;16.01;84.19
68865;DHT22;55898;52.196;4.420;2022-10-01T08:36:01;16.07;84.22
68865;DHT22;55898;52.196;4.420;2022-10-01T08:38:27;16.01;83.79
68865;DHT22;55898;52.196;4.420;2022-10-01T08:40:52;16.07;82.64
68865;DHT22;55898;52.196;4.420;2022-10-01T08:43:32;16.14;82.95
68865;DHT22;55898;52.196;4.420;2022-10-01T08:46:02;16.18;82.27
68865;DHT22;55898;52.196;4.420;2022-10-01T08:54:18;16.40;82.03
68865;DHT22;55898;52.196;4.420;2022-10-01T08:56:46;16.21;82.18
68865;DHT22;55898;52.196;4.420;2022-10-01T09:02:24;16.20;81.42
68865;DHT22;55898;52.196;4.420;2022-10-01T09:04:55;16.42;81.33
68865;DHT22;55898;52.196;4.420;2022-10-01T09:10:05;16.56;82.04
68865;DHT22;55898;52.196;4.420;2022-10-01T11:30:28;24.41;51.11
68865;DHT22;55898;52.196;4.420;2022-10-01T11:33:14;23.46;52.09
68865;DHT22;55898;52.196;4.420;2022-10-01T11:36:02;22.92;53.82
68865;DHT22;55898;52.196;4.420;2022-10-01T11:38:43;22.27;54.22
68865;DHT22;55898;52.196;4.420;2022-10-01T11:41:34;23.36;51.36
68865;DHT22;55898;52.196;4.420;2022-10-01T11:54:38;24.21;48.97
68865;DHT22;55898;52.196;4.420;2022-10-01T11:57:13;23.05;51.82
68865;DHT22;55898;52.196;4.420;2022-10-01T12:00:06;23.05;51.64
68865;DHT22;55898;52.196;4.420;2022-10-01T12:02:54;22.06;53.56
68865;DHT22;55898;52.196;4.420;2022-10-01T12:05:27;22.24;52.79
68865;DHT22;55898;52.196;4.420;2022-10-01T12:08:08;22.47;53.58
68865;DHT22;55898;52.196;4.420;2022-10-01T12:10:37;22.21;54.94
68865;DHT22;55898;52.196;4.420;2022-10-01T12:13:41;22.09;55.77
68865;DHT22;55898;52.196;4.420;2022-10-01T12:16:18;21.89;56.01
68865;DHT22;55898;52.196;4.420;2022-10-01T12:18:57;21.62;55.69
68865;DHT22;55898;52.196;4.420;2022-10-01T12:21:36;21.42;57.35
68865;DHT22;55898;52.196;4.420;2022-10-01T12:24:12;21.23;57.24
68865;DHT22;55898;52.196;4.420;2022-10-01T12:29:47;20.75;56.82
68865;DHT22;55898;52.196;4.420;2022-10-01T12:40:39;21.92;55.77
68865;DHT22;55898;52.196;4.420;2022-10-01T12:43:18;21.65;55.56
68865;DHT22;55898;52.196;4.420;2022-10-01T12:48:38;23.96;49.82
68865;DHT22;55898;52.196;4.420;2022-10-01T12:51:44;24.79;46.61
68865;DHT22;55898;52.196;4.420;2022-10-01T12:54:30;24.79;45.72
68865;DHT22;55898;52.196;4.420;2022-10-01T12:59:31;25.27;44.90
68865;DHT22;55898;52.196;4.420;2022-10-01T13:05:31;25.35;46.20
68865;DHT22;55898;52.196;4.420;2022-10-01T13:13:35;26.67;43.35
68865;DHT22;55898;52.196;4.420;2022-10-01T13:19:25;27.15;41.95
68865;DHT22;55898;52.196;4.420;2022-10-01T13:24:56;25.17;45.02
68865;DHT22;55898;52.196;4.420;2022-10-01T13:27:31;25.20;48.37
68865;DHT22;55898;52.196;4.420;2022-10-01T13:30:11;24.93;47.38
68865;DHT22;55898;52.196;4.420;2022-10-01T13:32:58;24.47;47.73
68865;DHT22;55898;52.196;4.420;2022-10-01T13:35:37;24.52;47.95
68865;DHT22;55898;52.196;4.420;2022-10-01T13:38:26;26.39;42.82
68865;DHT22;55898;52.196;4.420;2022-10-01T13:40:58;26.09;43.22
68865;DHT22;55898;52.196;4.420;2022-10-01T13:43:28;26.22;43.68
68865;DHT22;55898;52.196;4.420;2022-10-01T13:46:06;26.72;41.98
68865;DHT22;55898;52.196;4.420;2022-10-01T13:48:35;27.08;40.23
68865;DHT22;55898;52.196;4.420;2022-10-01T13:51:07;27.25;39.81
68865;DHT22;55898;52.196;4.420;2022-10-01T13:56:13;28.01;39.10
68865;DHT22;55898;52.196;4.420;2022-10-01T13:58:50;28.94;38.53
68865;DHT22;55898;52.196;4.420;2022-10-01T14:11:31;26.84;38.64
68865;DHT22;55898;52.196;4.420;2022-10-01T14:14:38;26.12;40.06
68865;DHT22;55898;52.196;4.420;2022-10-01T14:17:29;25.07;41.63
68865;DHT22;55898;52.196;4.420;2022-10-01T14:19:56;24.65;44.46
68865;DHT22;55898;52.196;4.420;2022-10-01T14:25:18;24.51;44.41
68865;DHT22;55898;52.196;4.420;2022-10-01T14:33:18;24.60;43.80
68865;DHT22;55898;52.196;4.420;2022-10-01T14:35:59;24.35;45.07
68865;DHT22;55898;52.196;4.420;2022-10-01T14:38:27;24.55;44.51
68865;DHT22;55898;52.196;4.420;2022-10-01T14:40:53;24.59;46.12
68865;DHT22;55898;52.196;4.420;2022-10-01T14:43:25;23.84;45.03
68865;DHT22;55898;52.196;4.420;2022-10-01T14:45:59;23.52;46.62
68865;DHT22;55898;52.196;4.420;2022-10-01T14:48:29;23.08;44.76
68865;DHT22;55898;52.196;4.420;2022-10-01T14:50:58;22.65;47.08
68865;DHT22;55898;52.196;4.420;2022-10-01T14:53:27;22.54;49.74
68865;DHT22;55898;52.196;4.420;2022-10-01T14:55:56;22.33;48.49
68865;DHT22;55898;52.196;4.420;2022-10-01T14:58:36;22.34;50.47
68865;DHT22;55898;52.196;4.420;2022-10-01T15:01:04;22.20;51.31
68865;DHT22;55898;52.196;4.420;2022-10-01T15:03:42;21.96;52.28
68865;DHT22;55898;52.196;4.420;2022-10-01T15:06:12;21.74;53.01
68865;DHT22;55898;52.196;4.420;2022-10-01T15:08:43;21.44;52.48
68865;DHT22;55898;52.196;4.420;2022-10-01T15:11:20;21.31;52.78
68865;DHT22;55898;52.196;4.420;2022-10-01T15:13:49;21.21;54.74
68865;DHT22;55898;52.196;4.420;2022-10-01T15:16:19;21.04;53.09
68865;DHT22;55898;52.196;4.420;2022-10-01T15:18:53;20.99;53.86
68865;DHT22;55898;52.196;4.420;2022-10-01T15:21:29;20.84;55.22
68865;DHT22;55898;52.196;4.420;2022-10-01T15:23:57;20.82;54.20
68865;DHT22;55898;52.196;4.420;2022-10-01T15:26:25;20.76;54.00
68865;DHT22;55898;52.196;4.420;2022-10-01T15:29:12;20.70;54.67
68865;DHT22;55898;52.196;4.420;2022-10-01T15:44:02;19.53;69.11
68865;DHT22;55898;52.196;4.420;2022-10-01T15:46:30;19.42;68.16
68865;DHT22;55898;52.196;4.420;2022-10-01T15:49:19;19.23;66.51
68865;DHT22;55898;52.196;4.420;2022-10-01T15:51:56;19.27;66.77
68865;DHT22;55898;52.196;4.420;2022-10-01T15:54:42;19.22;66.47
68865;DHT22;55898;52.196;4.420;2022-10-01T15:57:16;19.29;67.38
68865;DHT22;55898;52.196;4.420;2022-10-01T15:59:42;19.53;67.22
68865;DHT22;55898;52.196;4.420;2022-10-01T16:02:18;19.54;66.87
68865;DHT22;55898;52.196;4.420;2022-10-01T16:04:45;19.57;67.57
68865;DHT22;55898;52.196;4.420;2022-10-01T16:07:27;19.47;64.87
68865;DHT22;55898;52.196;4.420;2022-10-01T16:09:59;19.40;64.56
68865;DHT22;55898;52.196;4.420;2022-10-01T16:12:36;19.26;63.92
68865;DHT22;55898;52.196;4.420;2022-10-01T16:15:04;19.15;62.92
68865;DHT22;55898;52.196;4.420;2022-10-01T16:17:37;19.14;63.14
68865;DHT22;55898;52.196;4.420;2022-10-01T16:22:41;19.08;63.67
68865;DHT22;55898;52.196;4.420;2022-10-01T16:31:03;18.88;64.98
68865;DHT22;55898;52.196;4.420;2022-10-01T16:33:30;18.91;64.93
68865;DHT22;55898;52.196;4.420;2022-10-01T16:36:09;18.94;65.36
68865;DHT22;55898;52.196;4.420;2022-10-01T16:38:35;18.94;65.43
68865;DHT22;55898;52.196;4.420;2022-10-01T16:41:00;18.99;66.76
68865;DHT22;55898;52.196;4.420;2022-10-01T16:43:28;19.02;66.01
68865;DHT22;55898;52.196;4.420;2022-10-01T16:45:55;19.02;66.16
68865;DHT22;55898;52.196;4.420;2022-10-01T16:48:23;19.02;63.89
68865;DHT22;55898;52.196;4.420;2022-10-01T16:50:49;19.11;64.90
68865;DHT22;55898;52.196;4.420;2022-10-01T16:53:18;19.05;65.51
68865;DHT22;55898;52.196;4.420;2022-10-01T16:55:45;19.04;65.34
68865;DHT22;55898;52.196;4.420;2022-10-01T16:58:11;18.92;65.53
68865;DHT22;55898;52.196;4.420;2022-10-01T17:00:37;18.95;66.43
68865;DHT22;55898;52.196;4.420;2022-10-01T17:03:13;18.88;66.28
68865;DHT22;55898;52.196;4.420;2022-10-01T17:05:39;18.89;66.37
68865;DHT22;55898;52.196;4.420;2022-10-01T17:08:05;18.87;66.04
68865;DHT22;55898;52.196;4.420;2022-10-01T17:10:49;18.84;64.18
68865;DHT22;55898;52.196;4.420;2022-10-01T17:13:18;18.69;63.32
68865;DHT22;55898;52.196;4.420;2022-10-01T17:15:43;18.65;63.74
68865;DHT22;55898;52.196;4.420;2022-10-01T17:18:09;18.60;63.05
68865;DHT22;55898;52.196;4.420;2022-10-01T17:20:35;18.57;61.12
68865;DHT22;55898;52.196;4.420;2022-10-01T17:23:03;18.56;60.94
68865;DHT22;55898;52.196;4.420;2022-10-01T17:25:34;18.53;61.93
68865;DHT22;55898;52.196;4.420;2022-10-01T17:28:02;18.46;62.49
68865;DHT22;55898;52.196;4.420;2022-10-01T17:30:29;18.38;63.53
68865;DHT22;55898;52.196;4.420;2022-10-01T17:32:57;18.34;65.29
68865;DHT22;55898;52.196;4.420;2022-10-01T17:35:25;18.27;65.25
68865;DHT22;55898;52.196;4.420;2022-10-01T17:37:51;18.27;64.20
68865;DHT22;55898;52.196;4.420;2022-10-01T17:40:17;18.27;64.03
68865;DHT22;55898;52.196;4.420;2022-10-01T17:42:42;18.26;64.29
68865;DHT22;55898;52.196;4.420;2022-10-01T17:45:10;18.14;64.14
68865;DHT22;55898;52.196;4.420;2022-10-01T17:47:47;18.12;64.68
68865;DHT22;55898;52.196;4.420;2022-10-01T17:50:15;18.05;64.72
68865;DHT22;55898;52.196;4.420;2022-10-01T17:52:41;18.08;64.85
68865;DHT22;55898;52.196;4.420;2022-10-01T17:55:07;18.09;65.25
68865;DHT22;55898;52.196;4.420;2022-10-01T17:57:33;18.05;65.10
68865;DHT22;55898;52.196;4.420;2022-10-01T17:59:58;18.00;64.28
68865;DHT22;55898;52.196;4.420;2022-10-01T18:02:24;18.05;64.44
68865;DHT22;55898;52.196;4.420;2022-10-01T18:04:50;18.00;65.81
68865;DHT22;55898;52.196;4.420;2022-10-01T18:07:15;18.00;65.77
68865;DHT22;55898;52.196;4.420;2022-10-01T18:09:42;17.98;66.65
68865;DHT22;55898;52.196;4.420;2022-10-01T18:12:12;17.95;65.87
68865;DHT22;55898;52.196;4.420;2022-10-01T18:14:37;17.95;66.55
68865;DHT22;55898;52.196;4.420;2022-10-01T18:17:03;17.95;67.29
68865;DHT22;55898;52.196;4.420;2022-10-01T18:19:29;17.90;66.47
68865;DHT22;55898;52.196;4.420;2022-10-01T18:21:56;17.88;66.52
68865;DHT22;55898;52.196;4.420;2022-10-01T18:24:23;17.90;66.65
68865;DHT22;55898;52.196;4.420;2022-10-01T18:26:48;17.98;67.10
68865;DHT22;55898;52.196;4.420;2022-10-01T18:29:21;17.95;67.77
68865;DHT22;55898;52.196;4.420;2022-10-01T18:31:54;17.99;67.54
68865;DHT22;55898;52.196;4.420;2022-10-01T18:34:35;17.99;67.28
68865;DHT22;55898;52.196;4.420;2022-10-01T18:37:15;17.98;67.49
68865;DHT22;55898;52.196;4.420;2022-10-01T18:39:52;17.99;66.78
68865;DHT22;55898;52.196;4.420;2022-10-01T18:42:26;18.02;66.79
68865;DHT22;55898;52.196;4.420;2022-10-01T18:44:57;18.03;66.82
68865;DHT22;55898;52.196;4.420;2022-10-01T18:58:57;18.00;67.77
68865;DHT22;55898;52.196;4.420;2022-10-01T19:17:23;17.86;69.48
68865;DHT22;55898;52.196;4.420;2022-10-01T19:23:07;17.92;69.34
68865;DHT22;55898;52.196;4.420;2022-10-01T19:25:47;17.82;69.43
68865;DHT22;55898;52.196;4.420;2022-10-01T19:34:36;17.82;70.06
68865;DHT22;55898;52.196;4.420;2022-10-01T19:37:10;17.79;70.72
68865;DHT22;55898;52.196;4.420;2022-10-01T19:39:38;17.78;70.71
68865;DHT22;55898;52.196;4.420;2022-10-01T19:42:15;17.79;70.64
68865;DHT22;55898;52.196;4.420;2022-10-01T19:47:30;17.79;70.51
68865;DHT22;55898;52.196;4.420;2022-10-01T19:50:03;17.81;70.06
68865;DHT22;55898;52.196;4.420;2022-10-01T19:52:39;17.79;70.26
68865;DHT22;55898;52.196;4.420;2022-10-01T19:55:14;17.79;70.25
68865;DHT22;55898;52.196;4.420;2022-10-01T19:57:42;17.82;70.09
68865;DHT22;55898;52.196;4.420;2022-10-01T20:00:14;17.85;69.92
68865;DHT22;55898;52.196;4.420;2022-10-01T20:02:59;17.82;70.04
68865;DHT22;55898;52.196;4.420;2022-10-01T20:05:38;17.82;69.92
68865;DHT22;55898;52.196;4.420;2022-10-01T20:14:00;17.79;69.37
68865;DHT22;55898;52.196;4.420;2022-10-01T20:16:37;17.83;69.42
68865;DHT22;55898;52.196;4.420;2022-10-01T20:22:03;17.78;69.70
68865;DHT22;55898;52.196;4.420;2022-10-01T20:30:20;17.75;70.35
68865;DHT22;55898;52.196;4.420;2022-10-01T20:32:57;17.75;70.34
68865;DHT22;55898;52.196;4.420;2022-10-01T20:38:05;17.74;70.43
68865;DHT22;55898;52.196;4.420;2022-10-01T20:40:47;17.72;70.34
68865;DHT22;55898;52.196;4.420;2022-10-01T20:43:25;17.71;70.34
68865;DHT22;55898;52.196;4.420;2022-10-01T20:45:54;17.69;70.50
68865;DHT22;55898;52.196;4.420;2022-10-01T20:48:28;17.65;70.26
68865;DHT22;55898;52.196;4.420;2022-10-01T20:51:04;17.64;69.78
68865;DHT22;55898;52.196;4.420;2022-10-01T20:53:42;17.64;70.05
68865;DHT22;55898;52.196;4.420;2022-10-01T20:56:19;17.62;69.94
68865;DHT22;55898;52.196;4.420;2022-10-01T20:58:52;17.67;70.05
68865;DHT22;55898;52.196;4.420;2022-10-01T21:01:23;17.64;70.11
68865;DHT22;55898;52.196;4.420;2022-10-01T21:04:03;17.67;70.01
68865;DHT22;55898;52.196;4.420;2022-10-01T21:06:44;17.68;70.25
68865;DHT22;55898;52.196;4.420;2022-10-01T21:09:22;17.68;70.07
68865;DHT22;55898;52.196;4.420;2022-10-01T21:12:01;17.72;70.25
68865;DHT22;55898;52.196;4.420;2022-10-01T21:22:57;17.75;71.02